Decoded Metar for UKHH (KHARKOV in UKRAINE) (IATA:N/A) | Meteo·Mobile Aviation Weather
aviador You're here:

UKHH Decoded Metar

KHARKOV in UKRAINE
Report Time2019-04-23 16:30:00
UTC Time2019-04-23 16:36:13
Flight Rules vfr VFR
Wind350° at 4 kt
W.Decomp.*RWY 07: 0.1 kt HW 4 kt LCW
Visibility9999 m
Phenomena:N/A
Clouds:N/A
Expected CloudBase > 9,600 ft AGL from Temp-Dew spread
CeilingNone
Temp18°C (ISA +4)
Dew Point-6°C (19% RH)
AAT13.9°C
QNH1027 hPa
Density Alt571 ft
Elevation509 ft
Report Wrong Elevation
Raw Report
UKHH 231630Z 35002MPS CAVOK 18/M06 Q1027 R25/0///81 NOSIG=

Extra information for UKHH:More info

Metar Taf Metar & Taf Last 4 Metars F.Rules Stats Wind Profile Meteogram Temp Stats Airport Information Weather charts Add Link Nearby VenuesMetar ALERT Operation Metar Decoded Social comments